sensor_id;sensor_type;location;lat;lon;timestamp;pressure;altitude;pressure_sealevel;temperature;humidity
34370;BME280;20635;55.812;37.560;2023-04-05T00:00:39;99660.78;;;24.79;35.73
34370;BME280;20635;55.812;37.560;2023-04-05T00:03:05;99672.00;;;24.79;35.81
34370;BME280;20635;55.812;37.560;2023-04-05T00:05:31;99662.47;;;24.80;35.91
34370;BME280;20635;55.812;37.560;2023-04-05T00:07:59;99658.84;;;24.80;35.76
34370;BME280;20635;55.812;37.560;2023-04-05T00:10:26;99657.97;;;24.79;35.63
34370;BME280;20635;55.812;37.560;2023-04-05T00:12:52;99661.63;;;24.80;35.69
34370;BME280;20635;55.812;37.560;2023-04-05T00:15:18;99655.53;;;24.78;35.73
34370;BME280;20635;55.812;37.560;2023-04-05T00:17:43;99659.13;;;24.78;35.54
34370;BME280;20635;55.812;37.560;2023-04-05T00:20:10;99652.72;;;24.78;35.90
34370;BME280;20635;55.812;37.560;2023-04-05T00:22:36;99658.31;;;24.78;35.69
34370;BME280;20635;55.812;37.560;2023-04-05T00:25:05;99648.63;;;24.75;35.79
34370;BME280;20635;55.812;37.560;2023-04-05T00:27:31;99656.69;;;24.77;35.76
34370;BME280;20635;55.812;37.560;2023-04-05T00:29:57;99656.69;;;24.77;35.87
34370;BME280;20635;55.812;37.560;2023-04-05T00:32:23;99655.34;;;24.74;35.56
34370;BME280;20635;55.812;37.560;2023-04-05T00:34:49;99658.97;;;24.75;35.61
34370;BME280;20635;55.812;37.560;2023-04-05T00:37:15;99654.53;;;24.74;35.55
34370;BME280;20635;55.812;37.560;2023-04-05T00:39:41;99648.91;;;24.74;35.68
34370;BME280;20635;55.812;37.560;2023-04-05T00:42:06;99651.72;;;24.74;35.78
34370;BME280;20635;55.812;37.560;2023-04-05T00:44:33;99654.53;;;24.74;35.67
34370;BME280;20635;55.812;37.560;2023-04-05T00:47:03;99650.91;;;24.73;35.70
34370;BME280;20635;55.812;37.560;2023-04-05T00:49:31;99661.28;;;24.73;35.64
34370;BME280;20635;55.812;37.560;2023-04-05T00:51:57;99656.84;;;24.72;35.55
34370;BME280;20635;55.812;37.560;2023-04-05T00:54:26;99659.66;;;24.72;35.77
34370;BME280;20635;55.812;37.560;2023-04-05T00:56:56;99660.47;;;24.72;35.57
34370;BME280;20635;55.812;37.560;2023-04-05T00:59:22;99665.25;;;24.72;35.66
34370;BME280;20635;55.812;37.560;2023-04-05T01:01:59;99664.44;;;24.71;35.76
34370;BME280;20635;55.812;37.560;2023-04-05T01:04:27;99668.38;;;24.70;35.97
34370;BME280;20635;55.812;37.560;2023-04-05T01:10:05;99669.53;;;24.69;35.63
34370;BME280;20635;55.812;37.560;2023-04-05T01:12:11;99665.56;;;24.70;35.90
34370;BME280;20635;55.812;37.560;2023-04-05T01:14:42;99669.22;;;24.71;35.91
34370;BME280;20635;55.812;37.560;2023-04-05T01:17:08;99663.63;;;24.71;35.88
34370;BME280;20635;55.812;37.560;2023-04-05T01:19:34;99668.38;;;24.70;35.62
34370;BME280;20635;55.812;37.560;2023-04-05T01:22:30;99667.53;;;24.70;35.69
34370;BME280;20635;55.812;37.560;2023-04-05T01:27:25;99671.16;;;24.70;35.56
34370;BME280;20635;55.812;37.560;2023-04-05T01:30:02;99669.22;;;24.71;35.76
34370;BME280;20635;55.812;37.560;2023-04-05T01:37:40;99660.31;;;24.69;35.84
34370;BME280;20635;55.812;37.560;2023-04-05T01:40:09;99667.88;;;24.68;35.88
34370;BME280;20635;55.812;37.560;2023-04-05T01:42:35;99667.88;;;24.68;35.91
34370;BME280;20635;55.812;37.560;2023-04-05T01:45:01;99673.47;;;24.68;36.02
34370;BME280;20635;55.812;37.560;2023-04-05T01:47:26;99672.66;;;24.68;35.82
34370;BME280;20635;55.812;37.560;2023-04-05T01:49:52;99662.63;;;24.67;35.82
34370;BME280;20635;55.812;37.560;2023-04-05T01:52:18;99665.41;;;24.67;35.73
34370;BME280;20635;55.812;37.560;2023-04-05T01:54:44;99667.38;;;24.66;35.72
34370;BME280;20635;55.812;37.560;2023-04-05T01:57:10;99672.16;;;24.66;36.00
34370;BME280;20635;55.812;37.560;2023-04-05T01:59:35;99662.94;;;24.65;35.99
34370;BME280;20635;55.812;37.560;2023-04-05T02:02:02;99666.88;;;24.64;35.85
34370;BME280;20635;55.812;37.560;2023-04-05T02:04:28;99669.69;;;24.64;36.08
34370;BME280;20635;55.812;37.560;2023-04-05T02:06:54;99676.13;;;24.65;35.85
34370;BME280;20635;55.812;37.560;2023-04-05T02:09:20;99678.09;;;24.64;35.93
34370;BME280;20635;55.812;37.560;2023-04-05T02:11:45;99685.69;;;24.64;35.81
34370;BME280;20635;55.812;37.560;2023-04-05T02:14:11;99679.25;;;24.63;35.98
34370;BME280;20635;55.812;37.560;2023-04-05T02:16:37;99686.84;;;24.63;35.90
34370;BME280;20635;55.812;37.560;2023-04-05T02:19:03;99693.56;;;24.62;36.15
34370;BME280;20635;55.812;37.560;2023-04-05T02:21:30;99693.56;;;24.62;35.84
34370;BME280;20635;55.812;37.560;2023-04-05T02:23:56;99692.75;;;24.61;35.87
34370;BME280;20635;55.812;37.560;2023-04-05T02:26:22;99692.75;;;24.61;35.88
34370;BME280;20635;55.812;37.560;2023-04-05T02:28:47;99701.16;;;24.61;36.07
34370;BME280;20635;55.812;37.560;2023-04-05T02:31:13;99706.75;;;24.61;36.04
34370;BME280;20635;55.812;37.560;2023-04-05T02:33:40;99705.94;;;24.61;35.88
34370;BME280;20635;55.812;37.560;2023-04-05T02:36:07;99708.75;;;24.61;35.91
34370;BME280;20635;55.812;37.560;2023-04-05T02:38:36;99709.91;;;24.60;35.99
34370;BME280;20635;55.812;37.560;2023-04-05T02:41:02;99709.91;;;24.60;35.77
34370;BME280;20635;55.812;37.560;2023-04-05T02:43:29;99706.28;;;24.59;35.74
34370;BME280;20635;55.812;37.560;2023-04-05T02:45:55;99716.66;;;24.59;35.95
34370;BME280;20635;55.812;37.560;2023-04-05T02:48:21;99723.09;;;24.59;36.05
34370;BME280;20635;55.812;37.560;2023-04-05T02:50:48;99711.06;;;24.59;36.06
34370;BME280;20635;55.812;37.560;2023-04-05T02:53:14;99708.56;;;24.57;35.96
34370;BME280;20635;55.812;37.560;2023-04-05T02:55:40;99712.22;;;24.58;36.01
34370;BME280;20635;55.812;37.560;2023-04-05T02:58:07;99715.03;;;24.58;35.75
34370;BME280;20635;55.812;37.560;2023-04-05T03:00:38;99719.75;;;24.57;35.90
34370;BME280;20635;55.812;37.560;2023-04-05T03:03:06;99721.75;;;24.57;35.92
34370;BME280;20635;55.812;37.560;2023-04-05T03:05:35;99724.53;;;24.57;35.85
34370;BME280;20635;55.812;37.560;2023-04-05T03:08:01;99724.53;;;24.57;35.79
34370;BME280;20635;55.812;37.560;2023-04-05T03:10:30;99721.75;;;24.57;35.91
34370;BME280;20635;55.812;37.560;2023-04-05T03:13:04;99726.53;;;24.56;35.81
34370;BME280;20635;55.812;37.560;2023-04-05T03:15:31;99724.53;;;24.57;35.67
34370;BME280;20635;55.812;37.560;2023-04-05T03:17:59;99726.88;;;24.54;35.83
34370;BME280;20635;55.812;37.560;2023-04-05T03:20:26;99732.13;;;24.56;35.87
34370;BME280;20635;55.812;37.560;2023-04-05T03:22:56;99739.72;;;24.55;35.78
34370;BME280;20635;55.812;37.560;2023-04-05T03:25:27;99730.50;;;24.55;35.70
34370;BME280;20635;55.812;37.560;2023-04-05T03:27:53;99740.88;;;24.54;35.97
34370;BME280;20635;55.812;37.560;2023-04-05T03:30:23;99736.09;;;24.55;35.67
34370;BME280;20635;55.812;37.560;2023-04-05T03:32:55;99739.72;;;24.55;35.55
34370;BME280;20635;55.812;37.560;2023-04-05T03:35:37;99743.69;;;24.54;35.68
34370;BME280;20635;55.812;37.560;2023-04-05T03:38:06;99740.88;;;24.54;35.57
34370;BME280;20635;55.812;37.560;2023-04-05T03:40:33;99749.28;;;24.54;35.66
34370;BME280;20635;55.812;37.560;2023-04-05T03:43:00;99751.25;;;24.54;35.61
34370;BME280;20635;55.812;37.560;2023-04-05T03:45:25;99750.44;;;24.53;35.50
34370;BME280;20635;55.812;37.560;2023-04-05T03:47:51;99754.38;;;24.52;35.60
34370;BME280;20635;55.812;37.560;2023-04-05T03:50:17;99758.84;;;24.53;35.50
34370;BME280;20635;55.812;37.560;2023-04-05T03:52:44;99758.84;;;24.53;35.80
34370;BME280;20635;55.812;37.560;2023-04-05T03:55:11;99768.88;;;24.54;35.84
34370;BME280;20635;55.812;37.560;2023-04-05T03:57:39;99767.25;;;24.53;35.83
34370;BME280;20635;55.812;37.560;2023-04-05T04:00:19;99760.81;;;24.53;35.61
34370;BME280;20635;55.812;37.560;2023-04-05T04:03:02;99761.63;;;24.53;35.46
34370;BME280;20635;55.812;37.560;2023-04-05T04:05:28;99768.06;;;24.54;35.50
34370;BME280;20635;55.812;37.560;2023-04-05T04:07:54;99773.66;;;24.54;35.67
34370;BME280;20635;55.812;37.560;2023-04-05T04:10:21;99769.22;;;24.53;35.49
34370;BME280;20635;55.812;37.560;2023-04-05T04:12:50;99775.66;;;24.53;35.50
34370;BME280;20635;55.812;37.560;2023-04-05T04:15:18;99780.91;;;24.55;35.46
34370;BME280;20635;55.812;37.560;2023-04-05T04:18:07;99773.66;;;24.54;35.50
34370;BME280;20635;55.812;37.560;2023-04-05T04:20:53;99774.50;;;24.54;35.46
34370;BME280;20635;55.812;37.560;2023-04-05T04:23:44;99774.50;;;24.54;35.59
34370;BME280;20635;55.812;37.560;2023-04-05T04:26:22;99782.91;;;24.54;35.25
34370;BME280;20635;55.812;37.560;2023-04-05T04:29:09;99778.13;;;24.55;35.46
34370;BME280;20635;55.812;37.560;2023-04-05T04:32:09;99787.34;;;24.55;35.46
34370;BME280;20635;55.812;37.560;2023-04-05T04:34:53;99786.19;;;24.57;35.35
34370;BME280;20635;55.812;37.560;2023-04-05T04:37:35;99788.16;;;24.56;35.34
34370;BME280;20635;55.812;37.560;2023-04-05T04:40:20;99790.97;;;24.56;35.36
34370;BME280;20635;55.812;37.560;2023-04-05T04:43:16;99797.09;;;24.58;35.27
34370;BME280;20635;55.812;37.560;2023-04-05T04:45:55;99798.22;;;24.57;35.39
34370;BME280;20635;55.812;37.560;2023-04-05T04:48:41;99792.63;;;24.57;35.21
34370;BME280;20635;55.812;37.560;2023-04-05T04:51:27;99797.09;;;24.58;35.32
34370;BME280;20635;55.812;37.560;2023-04-05T04:53:53;99792.31;;;24.59;35.27
34370;BME280;20635;55.812;37.560;2023-04-05T04:56:19;99796.28;;;24.58;35.29
34370;BME280;20635;55.812;37.560;2023-04-05T04:58:46;99799.88;;;24.58;35.50
34370;BME280;20635;55.812;37.560;2023-04-05T05:01:12;99799.56;;;24.60;35.14
34370;BME280;20635;55.812;37.560;2023-04-05T05:03:38;99800.72;;;24.59;35.26
34370;BME280;20635;55.812;37.560;2023-04-05T05:06:04;99807.13;;;24.59;35.13
34370;BME280;20635;55.812;37.560;2023-04-05T05:08:31;99809.59;;;24.61;35.35
34370;BME280;20635;55.812;37.560;2023-04-05T05:10:57;99813.56;;;24.60;35.27
34370;BME280;20635;55.812;37.560;2023-04-05T05:13:23;99815.22;;;24.61;35.21
34370;BME280;20635;55.812;37.560;2023-04-05T05:15:49;99814.38;;;24.60;35.24
34370;BME280;20635;55.812;37.560;2023-04-05T05:18:16;99823.63;;;24.61;35.09
34370;BME280;20635;55.812;37.560;2023-04-05T05:20:42;99816.03;;;24.61;35.22
34370;BME280;20635;55.812;37.560;2023-04-05T05:23:08;99825.25;;;24.62;35.02
34370;BME280;20635;55.812;37.560;2023-04-05T05:25:33;99818.84;;;24.61;35.16
34370;BME280;20635;55.812;37.560;2023-04-05T05:27:59;99822.47;;;24.62;35.01
34370;BME280;20635;55.812;37.560;2023-04-05T05:30:26;99823.31;;;24.62;35.10
34370;BME280;20635;55.812;37.560;2023-04-05T05:32:53;99817.72;;;24.62;35.09
34370;BME280;20635;55.812;37.560;2023-04-05T05:35:19;99820.50;;;24.62;35.13
34370;BME280;20635;55.812;37.560;2023-04-05T05:37:45;99823.31;;;24.62;34.91
34370;BME280;20635;55.812;37.560;2023-04-05T05:40:11;99829.75;;;24.63;35.17
34370;BME280;20635;55.812;37.560;2023-04-05T05:42:37;99821.34;;;24.63;34.88
34370;BME280;20635;55.812;37.560;2023-04-05T05:45:04;99828.91;;;24.62;35.21
34370;BME280;20635;55.812;37.560;2023-04-05T05:47:30;99830.88;;;24.62;35.09
34370;BME280;20635;55.812;37.560;2023-04-05T05:49:55;99829.75;;;24.63;34.94
34370;BME280;20635;55.812;37.560;2023-04-05T05:52:22;99829.75;;;24.63;34.94
34370;BME280;20635;55.812;37.560;2023-04-05T05:54:48;99830.88;;;24.62;34.91
34370;BME280;20635;55.812;37.560;2023-04-05T05:57:13;99837.31;;;24.62;34.98
34370;BME280;20635;55.812;37.560;2023-04-05T05:59:39;99835.34;;;24.63;34.87
34370;BME280;20635;55.812;37.560;2023-04-05T06:02:06;99835.34;;;24.63;35.29
34370;BME280;20635;55.812;37.560;2023-04-05T06:04:32;99843.75;;;24.63;34.86
34370;BME280;20635;55.812;37.560;2023-04-05T06:06:59;99838.97;;;24.63;34.80
34370;BME280;20635;55.812;37.560;2023-04-05T06:09:25;99841.75;;;24.63;35.17
34370;BME280;20635;55.812;37.560;2023-04-05T06:11:51;99844.22;;;24.65;34.94
34370;BME280;20635;55.812;37.560;2023-04-05T06:14:17;99841.75;;;24.63;34.81
34370;BME280;20635;55.812;37.560;2023-04-05T06:16:43;99847.03;;;24.65;35.06
34370;BME280;20635;55.812;37.560;2023-04-05T06:19:09;99839.44;;;24.65;34.96
34370;BME280;20635;55.812;37.560;2023-04-05T06:21:35;99847.84;;;24.65;34.95
34370;BME280;20635;55.812;37.560;2023-04-05T06:24:00;99849.50;;;24.66;35.05
34370;BME280;20635;55.812;37.560;2023-04-05T06:26:26;99845.88;;;24.66;34.80
34370;BME280;20635;55.812;37.560;2023-04-05T06:28:54;99853.16;;;24.67;35.02
34370;BME280;20635;55.812;37.560;2023-04-05T06:31:30;99850.34;;;24.67;35.03
34370;BME280;20635;55.812;37.560;2023-04-05T06:33:55;99854.81;;;24.68;34.98
34370;BME280;20635;55.812;37.560;2023-04-05T06:36:21;99852.00;;;24.68;34.97
34370;BME280;20635;55.812;37.560;2023-04-05T06:38:47;99850.34;;;24.67;35.13
34370;BME280;20635;55.812;37.560;2023-04-05T06:41:13;99854.81;;;24.68;34.82
34370;BME280;20635;55.812;37.560;2023-04-05T06:43:38;99855.63;;;24.68;34.95
34370;BME280;20635;55.812;37.560;2023-04-05T06:46:04;99850.03;;;24.68;34.91
34370;BME280;20635;55.812;37.560;2023-04-05T06:48:33;99859.25;;;24.69;35.00
34370;BME280;20635;55.812;37.560;2023-04-05T06:51:00;99857.28;;;24.69;35.03
34370;BME280;20635;55.812;37.560;2023-04-05T06:53:26;99865.38;;;24.71;35.03
34370;BME280;20635;55.812;37.560;2023-04-05T06:55:53;99855.28;;;24.70;35.00
34370;BME280;20635;55.812;37.560;2023-04-05T06:58:18;99856.97;;;24.71;35.00
34370;BME280;20635;55.812;37.560;2023-04-05T07:00:46;99858.63;;;24.72;35.21
34370;BME280;20635;55.812;37.560;2023-04-05T07:03:12;99862.25;;;24.72;34.98
34370;BME280;20635;55.812;37.560;2023-04-05T07:05:37;99860.25;;;24.73;34.86
34370;BME280;20635;55.812;37.560;2023-04-05T07:08:03;99863.41;;;24.71;35.06
34370;BME280;20635;55.812;37.560;2023-04-05T07:10:29;99863.06;;;24.73;34.94
34370;BME280;20635;55.812;37.560;2023-04-05T07:12:55;99865.88;;;24.73;34.81
34370;BME280;20635;55.812;37.560;2023-04-05T07:15:20;99858.28;;;24.73;34.83
34370;BME280;20635;55.812;37.560;2023-04-05T07:17:47;99867.50;;;24.74;34.98
34370;BME280;20635;55.812;37.560;2023-04-05T07:20:12;99864.72;;;24.74;34.90
34370;BME280;20635;55.812;37.560;2023-04-05T07:22:38;99857.47;;;24.73;35.22
34370;BME280;20635;55.812;37.560;2023-04-05T07:25:04;99857.47;;;24.73;34.89
34370;BME280;20635;55.812;37.560;2023-04-05T07:27:30;99861.41;;;24.72;35.04
34370;BME280;20635;55.812;37.560;2023-04-05T07:29:56;99856.97;;;24.71;35.05
34370;BME280;20635;55.812;37.560;2023-04-05T07:32:22;99864.53;;;24.70;35.17
34370;BME280;20635;55.812;37.560;2023-04-05T07:34:47;99875.72;;;24.70;34.95
34370;BME280;20635;55.812;37.560;2023-04-05T07:37:13;99875.72;;;24.70;35.17
34370;BME280;20635;55.812;37.560;2023-04-05T07:39:39;99871.28;;;24.69;35.09
34370;BME280;20635;55.812;37.560;2023-04-05T07:42:05;99875.72;;;24.70;34.95
34370;BME280;20635;55.812;37.560;2023-04-05T07:44:31;99875.72;;;24.70;35.19
34370;BME280;20635;55.812;37.560;2023-04-05T07:46:57;99883.00;;;24.71;34.97
34370;BME280;20635;55.812;37.560;2023-04-05T07:49:23;99883.00;;;24.71;35.10
34370;BME280;20635;55.812;37.560;2023-04-05T07:51:49;99888.28;;;24.73;35.13
34370;BME280;20635;55.812;37.560;2023-04-05T07:54:18;99882.34;;;24.74;34.94
34370;BME280;20635;55.812;37.560;2023-04-05T07:56:43;99880.69;;;24.73;34.99
34370;BME280;20635;55.812;37.560;2023-04-05T07:59:09;99879.53;;;24.74;35.00
34370;BME280;20635;55.812;37.560;2023-04-05T08:01:35;99875.63;;;24.75;35.20
34370;BME280;20635;55.812;37.560;2023-04-05T08:04:01;99871.97;;;24.75;35.11
34370;BME280;20635;55.812;37.560;2023-04-05T08:06:26;99871.66;;;24.76;35.34
34370;BME280;20635;55.812;37.560;2023-04-05T08:08:52;99872.81;;;24.75;35.20
34370;BME280;20635;55.812;37.560;2023-04-05T08:11:18;99884.50;;;24.77;35.24
34370;BME280;20635;55.812;37.560;2023-04-05T08:13:43;99888.13;;;24.78;35.28
34370;BME280;20635;55.812;37.560;2023-04-05T08:16:11;99884.50;;;24.77;35.26
34370;BME280;20635;55.812;37.560;2023-04-05T08:18:37;99889.28;;;24.77;35.13
34370;BME280;20635;55.812;37.560;2023-04-05T08:21:02;99880.06;;;24.76;35.29
34370;BME280;20635;55.812;37.560;2023-04-05T08:23:28;99875.28;;;24.77;35.36
34370;BME280;20635;55.812;37.560;2023-04-05T08:25:54;99871.97;;;24.75;35.25
34370;BME280;20635;55.812;37.560;2023-04-05T08:28:20;99884.03;;;24.75;35.41
34370;BME280;20635;55.812;37.560;2023-04-05T08:30:46;99894.06;;;24.76;35.46
34370;BME280;20635;55.812;37.560;2023-04-05T08:33:12;99894.38;;;24.75;35.22
34370;BME280;20635;55.812;37.560;2023-04-05T08:35:38;99890.75;;;24.74;35.53
34370;BME280;20635;55.812;37.560;2023-04-05T08:38:05;99894.38;;;24.75;35.23
34370;BME280;20635;55.812;37.560;2023-04-05T08:40:41;99899.97;;;24.75;35.52
34370;BME280;20635;55.812;37.560;2023-04-05T08:45:42;99885.97;;;24.75;35.44
34370;BME280;20635;55.812;37.560;2023-04-05T08:48:09;99888.78;;;24.75;35.49
34370;BME280;20635;55.812;37.560;2023-04-05T08:50:34;99887.94;;;24.74;35.41
34370;BME280;20635;55.812;37.560;2023-04-05T08:53:00;99884.31;;;24.74;35.43
34370;BME280;20635;55.812;37.560;2023-04-05T08:55:26;99893.56;;;24.74;35.36
34370;BME280;20635;55.812;37.560;2023-04-05T08:57:52;99895.53;;;24.74;35.45
34370;BME280;20635;55.812;37.560;2023-04-05T09:00:18;99882.34;;;24.74;35.38
34370;BME280;20635;55.812;37.560;2023-04-05T09:02:46;99883.50;;;24.73;35.43
34370;BME280;20635;55.812;37.560;2023-04-05T09:05:13;99885.16;;;24.74;35.44
34370;BME280;20635;55.812;37.560;2023-04-05T09:07:41;99886.81;;;24.75;35.48
34370;BME280;20635;55.812;37.560;2023-04-05T09:10:08;99889.94;;;24.74;35.23
34370;BME280;20635;55.812;37.560;2023-04-05T09:12:34;99885.97;;;24.75;35.35
34370;BME280;20635;55.812;37.560;2023-04-05T09:15:00;99887.13;;;24.74;35.43
34370;BME280;20635;55.812;37.560;2023-04-05T09:17:27;99891.56;;;24.75;35.34
34370;BME280;20635;55.812;37.560;2023-04-05T09:19:52;99892.44;;;24.75;35.19
34370;BME280;20635;55.812;37.560;2023-04-05T09:22:18;99885.97;;;24.75;35.49
34370;BME280;20635;55.812;37.560;2023-04-05T09:24:44;99886.81;;;24.75;35.25
34370;BME280;20635;55.812;37.560;2023-04-05T09:27:13;99892.09;;;24.77;35.17
34370;BME280;20635;55.812;37.560;2023-04-05T09:29:41;99888.13;;;24.78;35.33
34370;BME280;20635;55.812;37.560;2023-04-05T09:32:09;99888.13;;;24.78;35.38
34370;BME280;20635;55.812;37.560;2023-04-05T09:34:35;99891.75;;;24.78;35.37
34370;BME280;20635;55.812;37.560;2023-04-05T09:37:16;99894.25;;;24.80;35.15
34370;BME280;20635;55.812;37.560;2023-04-05T09:39:43;99886.66;;;24.80;35.29
34370;BME280;20635;55.812;37.560;2023-04-05T09:42:10;99890.31;;;24.81;35.29
34370;BME280;20635;55.812;37.560;2023-04-05T09:47:18;99886.34;;;24.82;35.46
34370;BME280;20635;55.812;37.560;2023-04-05T09:49:45;99893.59;;;24.83;35.12
34370;BME280;20635;55.812;37.560;2023-04-05T09:52:29;99892.44;;;24.84;35.30
34370;BME280;20635;55.812;37.560;2023-04-05T09:55:00;99888.81;;;24.84;35.48
34370;BME280;20635;55.812;37.560;2023-04-05T09:57:26;99881.22;;;24.84;35.27
34370;BME280;20635;55.812;37.560;2023-04-05T09:59:53;99886.81;;;24.84;35.37
34370;BME280;20635;55.812;37.560;2023-04-05T10:02:22;99893.28;;;24.85;35.19
34370;BME280;20635;55.812;37.560;2023-04-05T10:04:49;99879.28;;;24.85;35.38
34370;BME280;20635;55.812;37.560;2023-04-05T10:07:16;99878.13;;;24.86;35.21
34370;BME280;20635;55.812;37.560;2023-04-05T10:09:43;99890.16;;;24.86;35.45
34370;BME280;20635;55.812;37.560;2023-04-05T10:12:09;99881.75;;;24.86;35.30
34370;BME280;20635;55.812;37.560;2023-04-05T10:14:37;99889.00;;;24.87;35.32
34370;BME280;20635;55.812;37.560;2023-04-05T10:17:19;99886.19;;;24.87;35.36
34370;BME280;20635;55.812;37.560;2023-04-05T10:22:40;99881.09;;;24.89;35.40
34370;BME280;20635;55.812;37.560;2023-04-05T10:25:21;99882.75;;;24.90;35.32
34370;BME280;20635;55.812;37.560;2023-04-05T10:27:58;99882.06;;;24.93;35.35
34370;BME280;20635;55.812;37.560;2023-04-05T10:30:28;99871.38;;;24.95;35.41
34370;BME280;20635;55.812;37.560;2023-04-05T10:36:30;99884.41;;;25.00;35.36
34370;BME280;20635;55.812;37.560;2023-04-05T10:38:29;99882.94;;;25.02;35.29
34370;BME280;20635;55.812;37.560;2023-04-05T10:41:08;99884.25;;;25.05;35.23
34370;BME280;20635;55.812;37.560;2023-04-05T10:43:34;99877.22;;;25.08;35.36
34370;BME280;20635;55.812;37.560;2023-04-05T10:46:02;99882.16;;;25.11;35.06
34370;BME280;20635;55.812;37.560;2023-04-05T10:51:12;99887.47;;;25.12;34.82
34370;BME280;20635;55.812;37.560;2023-04-05T10:53:39;99883.16;;;25.15;35.05
34370;BME280;20635;55.812;37.560;2023-04-05T10:56:05;99878.38;;;25.15;34.96
34370;BME280;20635;55.812;37.560;2023-04-05T10:58:31;99880.03;;;25.16;34.67
34370;BME280;20635;55.812;37.560;2023-04-05T11:00:57;99878.91;;;25.17;34.76
34370;BME280;20635;55.812;37.560;2023-04-05T11:08:55;99887.47;;;25.21;34.65
34370;BME280;20635;55.812;37.560;2023-04-05T11:11:22;99877.91;;;25.22;34.62
34370;BME280;20635;55.812;37.560;2023-04-05T11:13:52;99882.34;;;25.23;34.36
34370;BME280;20635;55.812;37.560;2023-04-05T11:16:18;99875.59;;;25.24;34.37
34370;BME280;20635;55.812;37.560;2023-04-05T11:18:48;99875.59;;;25.24;34.31
34370;BME280;20635;55.812;37.560;2023-04-05T11:21:19;99880.03;;;25.25;34.44
34370;BME280;20635;55.812;37.560;2023-04-05T11:24:01;99879.72;;;25.26;34.45
34370;BME280;20635;55.812;37.560;2023-04-05T11:26:32;99879.41;;;25.28;34.50
34370;BME280;20635;55.812;37.560;2023-04-05T11:28:57;99881.03;;;25.29;34.44
34370;BME280;20635;55.812;37.560;2023-04-05T11:31:23;99875.94;;;25.31;34.29
34370;BME280;20635;55.812;37.560;2023-04-05T11:41:57;99861.59;;;25.41;34.06
34370;BME280;20635;55.812;37.560;2023-04-05T11:44:23;99868.53;;;25.44;33.97
34370;BME280;20635;55.812;37.560;2023-04-05T11:46:50;99861.44;;;25.46;34.13
34370;BME280;20635;55.812;37.560;2023-04-05T11:49:16;99862.75;;;25.49;34.14
34370;BME280;20635;55.812;37.560;2023-04-05T11:51:41;99864.06;;;25.51;33.97
34370;BME280;20635;55.812;37.560;2023-04-05T11:54:08;99856.97;;;25.54;33.89
34370;BME280;20635;55.812;37.560;2023-04-05T11:56:33;99862.75;;;25.58;33.85
34370;BME280;20635;55.812;37.560;2023-04-05T11:58:59;99860.44;;;25.60;33.78
34370;BME280;20635;55.812;37.560;2023-04-05T12:01:25;99864.59;;;25.62;33.82
34370;BME280;20635;55.812;37.560;2023-04-05T12:03:54;99855.47;;;25.65;33.84
34370;BME280;20635;55.812;37.560;2023-04-05T12:06:21;99860.44;;;25.68;33.67
34370;BME280;20635;55.812;37.560;2023-04-05T12:08:47;99850.53;;;25.71;33.71
34370;BME280;20635;55.812;37.560;2023-04-05T12:11:28;99848.69;;;25.75;33.75
34370;BME280;20635;55.812;37.560;2023-04-05T12:13:56;99848.91;;;25.78;33.69
34370;BME280;20635;55.812;37.560;2023-04-05T12:16:25;99850.22;;;25.81;33.54
34370;BME280;20635;55.812;37.560;2023-04-05T12:18:55;99849.88;;;25.83;33.46
34370;BME280;20635;55.812;37.560;2023-04-05T12:21:21;99847.59;;;25.85;33.57
34370;BME280;20635;55.812;37.560;2023-04-05T12:23:48;99851.22;;;25.85;33.61
34370;BME280;20635;55.812;37.560;2023-04-05T12:26:17;99845.25;;;25.87;33.53
34370;BME280;20635;55.812;37.560;2023-04-05T12:28:56;99853.34;;;25.88;33.49
34370;BME280;20635;55.812;37.560;2023-04-05T12:31:38;99843.44;;;25.91;33.51
34370;BME280;20635;55.812;37.560;2023-04-05T12:34:04;99850.34;;;25.93;33.54
34370;BME280;20635;55.812;37.560;2023-04-05T12:36:30;99855.31;;;25.96;33.39
34370;BME280;20635;55.812;37.560;2023-04-05T12:38:57;99846.56;;;25.98;33.45
34370;BME280;20635;55.812;37.560;2023-04-05T12:41:26;99849.88;;;26.00;33.38
34370;BME280;20635;55.812;37.560;2023-04-05T12:43:53;99847.53;;;26.02;33.48
34370;BME280;20635;55.812;37.560;2023-04-05T12:46:37;99849.69;;;26.05;33.39
34370;BME280;20635;55.812;37.560;2023-04-05T12:49:03;99843.41;;;26.08;33.30
34370;BME280;20635;55.812;37.560;2023-04-05T12:51:30;99855.94;;;26.11;33.24
34370;BME280;20635;55.812;37.560;2023-04-05T12:53:56;99851.66;;;26.13;33.17
34370;BME280;20635;55.812;37.560;2023-04-05T12:56:22;99854.94;;;26.15;33.42
34370;BME280;20635;55.812;37.560;2023-04-05T12:58:48;99852.66;;;26.17;33.13
34370;BME280;20635;55.812;37.560;2023-04-05T13:01:16;99855.09;;;26.19;33.24
34370;BME280;20635;55.812;37.560;2023-04-05T13:03:43;99843.53;;;26.20;33.09
34370;BME280;20635;55.812;37.560;2023-04-05T13:06:09;99843.69;;;26.24;33.16
34370;BME280;20635;55.812;37.560;2023-04-05T13:08:35;99849.00;;;26.25;33.21
34370;BME280;20635;55.812;37.560;2023-04-05T13:11:01;99843.03;;;26.27;33.16
34370;BME280;20635;55.812;37.560;2023-04-05T13:13:26;99846.66;;;26.27;33.20
34370;BME280;20635;55.812;37.560;2023-04-05T13:15:52;99841.88;;;26.28;33.15
34370;BME280;20635;55.812;37.560;2023-04-05T13:18:18;99841.19;;;26.31;33.37
34370;BME280;20635;55.812;37.560;2023-04-05T13:20:44;99849.28;;;26.33;33.30
34370;BME280;20635;55.812;37.560;2023-04-05T13:23:10;99851.75;;;26.34;33.00
34370;BME280;20635;55.812;37.560;2023-04-05T13:25:37;99847.81;;;26.35;33.12
34370;BME280;20635;55.812;37.560;2023-04-05T13:28:03;99848.63;;;26.36;32.84
34370;BME280;20635;55.812;37.560;2023-04-05T13:30:29;99843.31;;;26.34;33.04
34370;BME280;20635;55.812;37.560;2023-04-05T13:32:55;99851.28;;;26.32;33.03